createdAt,value
2024-02-13T00:00:28.681Z,6.87
2024-02-13T00:02:55.771Z,7.77
2024-02-13T00:05:22.806Z,6.77
2024-02-13T00:07:50.221Z,6.97
2024-02-13T00:10:17.662Z,6.63
2024-02-13T00:12:44.503Z,7.00
2024-02-13T00:15:19.721Z,7.17
2024-02-13T00:17:47.067Z,7.17
2024-02-13T00:20:15.402Z,7.40
2024-02-13T00:22:42.564Z,7.00
2024-02-13T00:25:10.525Z,7.47
2024-02-13T00:27:37.849Z,7.17
2024-02-13T00:30:05.853Z,7.43
2024-02-13T00:32:38.746Z,7.93
2024-02-13T00:35:10.156Z,7.60
2024-02-13T00:37:40.301Z,7.87
2024-02-13T00:40:11.312Z,8.00
2024-02-13T00:42:38.992Z,7.30
2024-02-13T00:45:08.487Z,9.47
2024-02-13T00:47:35.768Z,8.37
2024-02-13T00:50:03.534Z,9.20
2024-02-13T00:52:30.408Z,10.10
2024-02-13T00:54:58.692Z,10.13
2024-02-13T00:57:25.890Z,11.13
2024-02-13T00:59:53.534Z,10.40
2024-02-13T01:02:21.168Z,10.73
2024-02-13T01:04:49.189Z,11.40
2024-02-13T01:07:18.531Z,11.93
2024-02-13T01:09:45.720Z,11.80
2024-02-13T01:12:12.542Z,12.47
2024-02-13T01:14:39.963Z,12.73
2024-02-13T01:17:07.035Z,13.10
2024-02-13T01:19:34.127Z,13.57
2024-02-13T01:22:02.538Z,12.50
2024-02-13T01:24:30.351Z,12.97
2024-02-13T01:26:59.028Z,13.43
2024-02-13T01:29:26.275Z,13.00
2024-02-13T01:31:54.702Z,14.33
2024-02-13T01:34:21.582Z,13.93
2024-02-13T01:36:48.512Z,14.70
2024-02-13T01:39:15.385Z,14.17
2024-02-13T01:41:42.392Z,13.67
2024-02-13T01:44:09.940Z,13.83
2024-02-13T01:46:37.346Z,13.87
2024-02-13T01:49:05.185Z,14.17
2024-02-13T01:51:36.110Z,14.37
2024-02-13T01:54:05.824Z,14.03
2024-02-13T01:56:34.806Z,15.53
2024-02-13T01:59:04.895Z,16.10
2024-02-13T02:01:34.276Z,15.60
2024-02-13T02:04:05.031Z,14.93
2024-02-13T02:06:32.107Z,14.80
2024-02-13T02:08:59.410Z,15.77
2024-02-13T02:11:26.771Z,15.33
2024-02-13T02:13:54.033Z,15.27
2024-02-13T02:16:21.016Z,14.87
2024-02-13T02:18:47.978Z,15.40
2024-02-13T02:21:15.706Z,14.57
2024-02-13T02:23:42.659Z,13.97
2024-02-13T02:26:09.670Z,15.27
2024-02-13T02:28:36.585Z,16.37
2024-02-13T02:31:03.731Z,15.33
2024-02-13T02:33:30.948Z,16.40
2024-02-13T02:35:57.991Z,17.03
2024-02-13T02:38:24.945Z,16.77
2024-02-13T02:40:51.810Z,16.40
2024-02-13T02:43:18.645Z,15.97
2024-02-13T02:45:46.665Z,16.37
2024-02-13T02:48:15.745Z,17.27
2024-02-13T02:50:43.370Z,16.97
2024-02-13T02:53:10.368Z,16.57
2024-02-13T02:55:37.251Z,16.77
2024-02-13T02:58:04.228Z,18.03
2024-02-13T03:00:31.303Z,18.30
2024-02-13T03:02:58.449Z,17.63
2024-02-13T03:05:28.236Z,17.30
2024-02-13T03:07:55.877Z,17.33
2024-02-13T03:10:22.719Z,17.53
2024-02-13T03:12:49.571Z,18.67
2024-02-13T03:15:16.474Z,17.80
2024-02-13T03:17:45.088Z,17.50
2024-02-13T03:20:14.022Z,16.73
2024-02-13T03:22:41.124Z,18.27
2024-02-13T03:25:08.602Z,16.87
2024-02-13T03:27:35.400Z,18.00
2024-02-13T03:30:03.402Z,18.13
2024-02-13T03:32:30.603Z,16.33
2024-02-13T03:34:57.716Z,17.50
2024-02-13T03:37:24.590Z,16.67
2024-02-13T03:39:51.442Z,16.73
2024-02-13T03:42:18.411Z,16.57
2024-02-13T03:44:46.902Z,16.70
2024-02-13T03:47:14.100Z,17.63
2024-02-13T03:49:42.186Z,18.10
2024-02-13T03:52:10.819Z,17.53
2024-02-13T03:54:38.260Z,16.97
2024-02-13T03:57:05.930Z,17.07
2024-02-13T03:59:32.880Z,18.10
2024-02-13T04:02:00.090Z,17.63
2024-02-13T04:04:26.992Z,16.87
2024-02-13T04:06:54.041Z,16.50
2024-02-13T04:09:21.146Z,16.97
2024-02-13T04:11:48.151Z,16.93
2024-02-13T04:14:15.278Z,17.73
2024-02-13T04:16:42.667Z,16.63
2024-02-13T04:19:10.046Z,16.90
2024-02-13T04:21:39.025Z,15.97
2024-02-13T04:24:08.202Z,16.57
2024-02-13T04:26:43.077Z,16.13
2024-02-13T04:29:10.459Z,16.23
2024-02-13T04:31:40.380Z,16.20
2024-02-13T04:34:08.144Z,16.53
2024-02-13T04:36:38.811Z,16.93
2024-02-13T04:39:08.227Z,16.10
2024-02-13T04:41:35.231Z,16.20
2024-02-13T04:44:03.643Z,15.60
2024-02-13T04:46:30.665Z,15.83
2024-02-13T04:48:58.592Z,16.50
2024-02-13T04:51:25.684Z,16.63
2024-02-13T04:53:52.949Z,15.47
2024-02-13T04:56:20.151Z,16.27
2024-02-13T04:58:47.896Z,15.53
2024-02-13T05:01:15.782Z,16.20
2024-02-13T05:04:03.287Z,15.50
2024-02-13T05:06:49.396Z,16.67
2024-02-13T05:09:16.623Z,15.83
2024-02-13T05:11:43.759Z,16.47
2024-02-13T05:14:10.744Z,16.70
2024-02-13T05:16:42.578Z,16.57
2024-02-13T05:19:09.877Z,16.03
2024-02-13T05:21:37.277Z,15.37
2024-02-13T05:24:07.394Z,16.17
2024-02-13T05:26:35.941Z,15.87
2024-02-13T05:29:04.728Z,16.70
2024-02-13T05:31:31.879Z,16.43
2024-02-13T05:33:58.893Z,16.83
2024-02-13T05:36:27.279Z,14.87
2024-02-13T05:38:54.554Z,15.73
2024-02-13T05:41:21.492Z,14.80
2024-02-13T05:43:48.778Z,15.87
2024-02-13T05:46:15.716Z,16.03
2024-02-13T05:48:43.694Z,16.27
2024-02-13T05:51:12.691Z,15.57
2024-02-13T05:53:43.452Z,16.40
2024-02-13T05:56:13.285Z,16.27
2024-02-13T05:58:40.734Z,15.10
2024-02-13T06:01:09.100Z,14.27
2024-02-13T06:03:36.142Z,14.80
2024-02-13T06:06:03.823Z,15.30
2024-02-13T06:08:30.907Z,14.93
2024-02-13T06:11:00.094Z,15.73
2024-02-13T06:13:28.084Z,15.03
2024-02-13T06:15:57.959Z,15.30
2024-02-13T06:18:25.238Z,15.00
2024-02-13T06:20:52.340Z,15.57
2024-02-13T06:23:19.425Z,15.60
2024-02-13T06:25:46.676Z,14.87
2024-02-13T06:28:14.269Z,13.90
2024-02-13T06:30:43.782Z,15.37
2024-02-13T06:33:11.866Z,14.07
2024-02-13T06:35:40.657Z,15.70
2024-02-13T06:38:07.630Z,14.50
2024-02-13T06:40:35.338Z,14.17
2024-02-13T06:43:04.562Z,14.07
2024-02-13T06:45:31.903Z,15.27
2024-02-13T06:47:58.935Z,14.63
2024-02-13T06:50:25.930Z,14.40
2024-02-13T06:52:53.719Z,14.70
2024-02-13T06:55:21.207Z,14.67
2024-02-13T06:57:48.448Z,15.17
2024-02-13T07:00:15.843Z,13.70
2024-02-13T07:02:42.971Z,15.07
2024-02-13T07:05:12.136Z,14.57
2024-02-13T07:07:46.574Z,14.30
2024-02-13T07:10:18.319Z,14.00
2024-02-13T07:12:45.720Z,13.80
2024-02-13T07:15:12.844Z,13.87
2024-02-13T07:20:12.991Z,13.87
2024-02-13T07:22:40.573Z,12.80
2024-02-13T07:25:10.117Z,12.70
2024-02-13T07:27:43.396Z,12.67
2024-02-13T07:30:12.745Z,12.43
2024-02-13T07:32:41.048Z,12.13
2024-02-13T07:35:08.638Z,11.40
2024-02-13T07:37:35.654Z,11.57
2024-02-13T07:40:03.999Z,12.23
2024-02-13T07:42:31.050Z,11.60
2024-02-13T07:44:59.417Z,11.73
2024-02-13T07:47:28.283Z,11.93
2024-02-13T07:49:56.448Z,11.37
2024-02-13T07:52:23.626Z,11.50
2024-02-13T07:54:52.180Z,10.70
2024-02-13T07:57:19.815Z,11.37
2024-02-13T07:59:48.256Z,10.70
2024-02-13T08:02:15.756Z,9.53
2024-02-13T08:04:43.549Z,9.97
2024-02-13T08:07:10.891Z,9.53
2024-02-13T08:09:38.851Z,8.03
2024-02-13T08:12:08.207Z,7.77
2024-02-13T08:14:36.612Z,7.33
2024-02-13T08:17:09.376Z,7.17
2024-02-13T08:19:37.747Z,7.20
2024-02-13T08:22:04.806Z,6.97
2024-02-13T08:24:32.211Z,7.70
2024-02-13T08:27:02.562Z,6.80
2024-02-13T08:29:31.439Z,7.67
2024-02-13T08:31:58.897Z,6.83
2024-02-13T08:34:26.641Z,7.63
2024-02-13T08:36:55.545Z,6.33
2024-02-13T08:39:23.419Z,7.30
2024-02-13T08:41:50.716Z,7.00
2024-02-13T08:44:20.087Z,6.80
2024-02-13T08:46:47.279Z,6.87
2024-02-13T08:49:14.917Z,6.27
2024-02-13T08:51:42.259Z,6.60
2024-02-13T08:54:13.121Z,6.40
2024-02-13T08:56:43.370Z,7.03
2024-02-13T08:59:10.360Z,6.67
2024-02-13T09:01:37.483Z,7.00
2024-02-13T09:04:04.639Z,6.60
2024-02-13T09:06:33.909Z,6.73
2024-02-13T09:09:03.178Z,6.30
2024-02-13T09:11:32.474Z,6.43
2024-02-13T09:13:59.519Z,6.90
2024-02-13T09:16:26.881Z,6.33
2024-02-13T09:18:56.521Z,6.27
2024-02-13T09:21:24.367Z,6.40
2024-02-13T09:23:51.494Z,6.23
2024-02-13T09:26:18.455Z,5.90
2024-02-13T09:28:46.251Z,6.03
2024-02-13T09:31:13.524Z,5.93
2024-02-13T09:33:41.029Z,6.83
2024-02-13T09:36:09.387Z,6.37
2024-02-13T09:38:39.998Z,6.37
2024-02-13T09:41:07.391Z,6.87
2024-02-13T09:43:34.612Z,6.50
2024-02-13T09:46:03.080Z,6.43
2024-02-13T09:48:33.992Z,6.33
2024-02-13T09:51:09.694Z,5.70
2024-02-13T09:53:44.068Z,5.57
2024-02-13T09:56:13.525Z,6.70
2024-02-13T09:58:48.480Z,6.07
2024-02-13T10:01:16.260Z,6.23
2024-02-13T10:03:45.041Z,5.77
2024-02-13T10:06:12.553Z,5.57
2024-02-13T10:08:41.236Z,6.00
2024-02-13T10:11:17.543Z,6.23
2024-02-13T10:13:47.492Z,6.33
2024-02-13T10:16:32.453Z,5.50
2024-02-13T10:19:02.504Z,5.60
2024-02-13T10:21:33.020Z,5.43
2024-02-13T10:24:15.155Z,6.03
2024-02-13T10:26:43.730Z,5.30
2024-02-13T10:29:11.397Z,5.87
2024-02-13T10:31:41.786Z,6.13
2024-02-13T10:34:12.729Z,5.63
2024-02-13T10:36:44.317Z,5.87
2024-02-13T10:39:13.912Z,6.40
2024-02-13T10:41:43.204Z,6.40
2024-02-13T10:44:13.409Z,6.13
2024-02-13T10:46:42.347Z,5.90
2024-02-13T10:49:25.208Z,5.50
2024-02-13T10:51:56.826Z,5.00
2024-02-13T10:54:27.629Z,4.90
2024-02-13T10:56:56.201Z,4.60
2024-02-13T10:59:24.154Z,5.37
2024-02-13T11:01:55.305Z,4.67
2024-02-13T11:04:22.607Z,4.70
2024-02-13T11:06:50.732Z,4.97
2024-02-13T11:09:19.247Z,4.77
2024-02-13T11:11:46.769Z,4.93
2024-02-13T11:14:24.050Z,4.60
2024-02-13T11:17:02.036Z,4.70
2024-02-13T11:19:47.327Z,4.63
2024-02-13T11:22:19.828Z,4.27
2024-02-13T11:24:54.425Z,4.60
2024-02-13T11:27:29.463Z,4.13
2024-02-13T11:30:00.199Z,4.17
2024-02-13T11:32:33.353Z,4.07
2024-02-13T11:35:00.997Z,4.53
2024-02-13T11:37:31.593Z,4.03
2024-02-13T11:39:59.520Z,4.47
2024-02-13T11:42:35.318Z,3.70
2024-02-13T11:45:03.440Z,4.57
2024-02-13T11:47:30.934Z,4.83
2024-02-13T11:49:58.127Z,4.27
2024-02-13T11:52:25.112Z,3.73
2024-02-13T11:54:52.688Z,4.33
2024-02-13T11:57:27.585Z,4.07
2024-02-13T12:00:01.697Z,3.60
2024-02-13T12:02:31.346Z,3.60
2024-02-13T12:04:58.190Z,3.47
2024-02-13T12:07:25.338Z,3.97
2024-02-13T12:09:54.107Z,4.20
2024-02-13T12:12:22.431Z,3.80
2024-02-13T12:14:53.861Z,4.00
2024-02-13T12:17:22.081Z,3.57
2024-02-13T12:19:49.608Z,3.77
2024-02-13T12:22:18.356Z,3.67
2024-02-13T12:24:47.564Z,3.40
2024-02-13T12:27:18.023Z,3.70
2024-02-13T12:29:45.497Z,3.53
2024-02-13T12:32:21.404Z,4.00
2024-02-13T12:34:50.171Z,3.20
2024-02-13T12:37:21.753Z,3.17
2024-02-13T12:39:49.011Z,3.30
2024-02-13T12:42:18.629Z,3.00
2024-02-13T12:44:46.241Z,3.10
2024-02-13T12:47:14.928Z,2.97
2024-02-13T12:49:47.712Z,3.30
2024-02-13T12:52:18.798Z,3.00
2024-02-13T12:54:47.319Z,4.43
2024-02-13T12:57:15.862Z,3.53
2024-02-13T12:59:47.278Z,3.37
2024-02-13T13:02:15.614Z,2.83
2024-02-13T13:04:43.011Z,3.30
2024-02-13T13:07:10.297Z,3.80
2024-02-13T13:09:38.951Z,3.60
2024-02-13T13:12:07.655Z,3.33
2024-02-13T13:14:35.920Z,3.30
2024-02-13T13:17:03.049Z,3.40
2024-02-13T13:19:32.938Z,3.40
2024-02-13T13:22:00.222Z,3.27
2024-02-13T13:24:28.514Z,3.43
2024-02-13T13:26:55.936Z,4.33
2024-02-13T13:29:23.471Z,4.10
2024-02-13T13:31:52.402Z,3.57
2024-02-13T13:34:24.438Z,3.87
2024-02-13T13:36:53.191Z,3.97
2024-02-13T13:39:22.079Z,3.00
2024-02-13T13:41:51.513Z,3.43
2024-02-13T13:44:19.284Z,3.20
2024-02-13T13:46:48.077Z,3.77
2024-02-13T13:49:19.048Z,3.77
2024-02-13T13:51:47.035Z,3.47
2024-02-13T13:54:13.930Z,3.80
2024-02-13T13:56:41.964Z,3.50
2024-02-13T13:59:08.931Z,3.67
2024-02-13T14:01:36.457Z,3.20
2024-02-13T14:04:04.346Z,3.17
2024-02-13T14:06:31.774Z,3.13
2024-02-13T14:08:58.745Z,4.77
2024-02-13T14:11:25.745Z,3.53
2024-02-13T14:13:53.677Z,3.23
2024-02-13T14:16:20.715Z,3.20
2024-02-13T14:18:48.430Z,3.20
2024-02-13T14:21:15.623Z,3.60
2024-02-13T14:23:43.993Z,2.87
2024-02-13T14:26:10.980Z,2.80
2024-02-13T14:28:38.189Z,2.93
2024-02-13T14:31:05.412Z,2.93
2024-02-13T14:33:33.607Z,2.57
2024-02-13T14:36:00.874Z,2.30
2024-02-13T14:38:27.921Z,2.33
2024-02-13T14:40:55.290Z,3.07
2024-02-13T14:43:22.240Z,3.57
2024-02-13T14:45:51.947Z,2.53
2024-02-13T14:48:19.176Z,2.07
2024-02-13T14:50:48.575Z,2.53
2024-02-13T14:53:21.968Z,2.90
2024-02-13T14:55:49.220Z,2.40
2024-02-13T14:58:25.837Z,2.43
2024-02-13T15:00:58.360Z,2.60
2024-02-13T15:03:25.843Z,3.13
2024-02-13T15:05:54.218Z,2.53
2024-02-13T15:08:21.875Z,2.70
2024-02-13T15:10:49.462Z,2.60
2024-02-13T15:13:17.198Z,2.10
2024-02-13T15:15:50.124Z,2.40
2024-02-13T15:18:17.459Z,1.90
2024-02-13T15:20:45.161Z,2.27
2024-02-13T15:23:13.961Z,1.87
2024-02-13T15:25:41.680Z,2.13
2024-02-13T15:28:08.875Z,1.90
2024-02-13T15:30:38.796Z,1.93
2024-02-13T15:33:06.664Z,2.20
2024-02-13T15:35:42.464Z,2.93
2024-02-13T15:38:28.421Z,2.53
2024-02-13T15:41:14.176Z,2.30
2024-02-13T15:43:59.480Z,1.93
2024-02-13T15:46:45.057Z,2.00
2024-02-13T15:49:15.948Z,2.27
2024-02-13T15:51:45.230Z,2.17
2024-02-13T15:54:12.313Z,2.30
2024-02-13T15:56:40.752Z,2.50
2024-02-13T15:59:10.748Z,2.30
2024-02-13T16:01:37.644Z,1.70
2024-02-13T16:04:05.517Z,1.70
2024-02-13T16:06:37.875Z,3.50
2024-02-13T16:09:05.456Z,2.83
2024-02-13T16:11:33.327Z,1.90
2024-02-13T16:14:03.535Z,2.03
2024-02-13T16:16:30.473Z,2.00
2024-02-13T16:18:58.057Z,2.20
2024-02-13T16:21:26.134Z,2.60
2024-02-13T16:23:53.117Z,2.07
2024-02-13T16:26:21.109Z,2.30
2024-02-13T16:28:48.398Z,2.63
2024-02-13T16:31:15.272Z,3.03
2024-02-13T16:33:43.192Z,3.50
2024-02-13T16:36:10.184Z,2.60
2024-02-13T16:38:37.079Z,3.07
2024-02-13T16:41:04.361Z,2.70
2024-02-13T16:43:31.345Z,3.10
2024-02-13T16:45:58.616Z,6.53
2024-02-13T16:48:25.933Z,7.17
2024-02-13T16:50:53.108Z,3.60
2024-02-13T16:53:20.367Z,3.90
2024-02-13T16:55:49.797Z,5.17
2024-02-13T16:58:16.879Z,5.00
2024-02-13T17:00:43.951Z,4.97
2024-02-13T17:03:10.870Z,3.60
2024-02-13T17:05:40.021Z,3.00
2024-02-13T17:08:07.986Z,3.23
2024-02-13T17:10:35.112Z,3.60
2024-02-13T17:13:04.518Z,2.87
2024-02-13T17:15:31.506Z,2.67
2024-02-13T17:17:58.827Z,3.50
2024-02-13T17:20:26.013Z,3.50
2024-02-13T17:22:55.117Z,3.27
2024-02-13T17:25:22.081Z,2.90
2024-02-13T17:27:49.280Z,3.77
2024-02-13T17:30:16.741Z,4.47
2024-02-13T17:32:45.621Z,4.87
2024-02-13T17:35:12.992Z,3.47
2024-02-13T17:37:40.136Z,2.70
2024-02-13T17:40:09.569Z,3.40
2024-02-13T17:42:36.417Z,3.03
2024-02-13T17:45:06.077Z,3.83
2024-02-13T17:47:33.521Z,5.07
2024-02-13T17:50:00.737Z,5.90
2024-02-13T17:52:27.698Z,4.60
2024-02-13T17:54:54.501Z,4.87
2024-02-13T17:57:21.802Z,5.93
2024-02-13T17:59:48.906Z,5.57
2024-02-13T18:02:15.804Z,3.90
2024-02-13T18:04:42.614Z,3.30
2024-02-13T18:07:13.646Z,4.00
2024-02-13T18:09:41.567Z,3.60
2024-02-13T18:12:08.712Z,3.73
2024-02-13T18:14:38.512Z,4.30
2024-02-13T18:17:06.119Z,4.37
2024-02-13T18:19:33.324Z,4.13
2024-02-13T18:22:00.508Z,4.03
2024-02-13T18:24:27.447Z,4.30
2024-02-13T18:26:54.438Z,4.77
2024-02-13T18:29:21.357Z,4.47
2024-02-13T18:31:48.363Z,4.23
2024-02-13T18:34:16.951Z,4.17
2024-02-13T18:36:45.361Z,3.93
2024-02-13T18:39:14.284Z,4.73
2024-02-13T18:41:42.051Z,4.90
2024-02-13T18:44:09.078Z,4.53
2024-02-13T18:46:36.343Z,5.47
2024-02-13T18:49:04.325Z,5.00
2024-02-13T18:51:31.762Z,5.47
2024-02-13T18:53:58.732Z,5.63
2024-02-13T18:56:32.363Z,5.53
2024-02-13T18:59:00.339Z,4.40
2024-02-13T19:01:27.581Z,5.27
2024-02-13T19:03:55.235Z,4.57
2024-02-13T19:06:22.382Z,5.07
2024-02-13T19:08:49.361Z,5.30
2024-02-13T19:11:17.067Z,5.20
2024-02-13T19:13:45.438Z,5.17
2024-02-13T19:16:12.335Z,5.50
2024-02-13T19:18:40.232Z,5.03
2024-02-13T19:21:09.068Z,5.10
2024-02-13T19:23:36.297Z,4.93
2024-02-13T19:26:03.549Z,4.63
2024-02-13T19:28:30.478Z,4.53
2024-02-13T19:30:57.390Z,5.23
2024-02-13T19:33:25.058Z,4.93
2024-02-13T19:35:53.539Z,5.03
2024-02-13T19:38:21.096Z,5.53
2024-02-13T19:40:47.992Z,5.43
2024-02-13T19:43:14.883Z,4.73
2024-02-13T19:45:43.496Z,5.17
2024-02-13T19:48:10.807Z,5.00
2024-02-13T19:50:39.731Z,5.67
2024-02-13T19:53:08.052Z,5.57
2024-02-13T19:55:35.235Z,5.40
2024-02-13T19:58:03.287Z,5.33
2024-02-13T20:00:30.251Z,5.27
2024-02-13T20:02:57.278Z,5.07
2024-02-13T20:05:25.136Z,5.07
2024-02-13T20:07:52.228Z,4.93
2024-02-13T20:10:21.482Z,4.73
2024-02-13T20:12:49.121Z,4.17
2024-02-13T20:15:16.165Z,4.60
2024-02-13T20:17:45.063Z,4.60
2024-02-13T20:20:15.993Z,4.73
2024-02-13T20:22:48.435Z,4.77
2024-02-13T20:25:16.418Z,4.23
2024-02-13T20:27:47.175Z,4.00
2024-02-13T20:30:18.103Z,4.80
2024-02-13T20:32:46.238Z,4.13
2024-02-13T20:35:13.929Z,4.83
2024-02-13T20:37:41.639Z,4.47
2024-02-13T20:40:11.446Z,4.53
2024-02-13T20:42:46.507Z,4.47
2024-02-13T20:45:21.192Z,4.77
2024-02-13T20:47:53.050Z,4.43
2024-02-13T20:50:21.715Z,4.90
2024-02-13T20:52:48.713Z,4.63
2024-02-13T20:55:17.037Z,4.97
2024-02-13T20:57:44.658Z,5.13
2024-02-13T21:00:15.535Z,5.20
2024-02-13T21:02:43.545Z,4.63
2024-02-13T21:05:11.366Z,5.03
2024-02-13T21:07:38.443Z,4.93
2024-02-13T21:10:10.130Z,5.13
2024-02-13T21:12:37.363Z,4.67
2024-02-13T21:15:04.872Z,5.10
2024-02-13T21:17:40.812Z,4.77
2024-02-13T21:20:12.061Z,5.30
2024-02-13T21:22:57.998Z,5.13
2024-02-13T21:25:25.533Z,4.93
2024-02-13T21:27:52.520Z,4.23
2024-02-13T21:30:19.910Z,5.10
2024-02-13T21:32:48.155Z,5.47
2024-02-13T21:35:16.742Z,4.27
2024-02-13T21:37:44.292Z,3.97
2024-02-13T21:40:15.358Z,4.37
2024-02-13T21:42:42.765Z,4.90
2024-02-13T21:45:10.864Z,4.13
2024-02-13T21:47:42.800Z,4.10
2024-02-13T21:50:10.600Z,4.60
2024-02-13T21:52:38.170Z,4.57
2024-02-13T21:55:06.246Z,5.27
2024-02-13T21:57:33.352Z,4.53
2024-02-13T22:00:04.659Z,5.13
2024-02-13T22:02:32.351Z,5.60
2024-02-13T22:04:59.291Z,6.43
2024-02-13T22:07:26.422Z,5.93
2024-02-13T22:09:53.469Z,7.30
2024-02-13T22:12:20.327Z,9.10
2024-02-13T22:14:47.182Z,5.13
2024-02-13T22:17:14.171Z,7.47
2024-02-13T22:19:41.050Z,4.87
2024-02-13T22:22:07.954Z,4.30
2024-02-13T22:24:34.851Z,5.40
2024-02-13T22:27:01.816Z,5.97
2024-02-13T22:29:29.102Z,4.40
2024-02-13T22:31:55.944Z,4.90
2024-02-13T22:34:24.680Z,9.50
2024-02-13T22:36:53.635Z,6.77
2024-02-13T22:39:20.486Z,5.57
2024-02-13T22:41:47.367Z,5.63
2024-02-13T22:44:14.262Z,5.03
2024-02-13T22:46:41.956Z,5.53
2024-02-13T22:49:09.072Z,4.40
2024-02-13T22:51:36.008Z,4.83
2024-02-13T22:54:03.244Z,4.73
2024-02-13T22:56:30.513Z,5.17
2024-02-13T22:58:58.385Z,4.87
2024-02-13T23:01:25.549Z,5.00
2024-02-13T23:03:52.575Z,5.00
2024-02-13T23:06:20.418Z,4.53
2024-02-13T23:08:47.476Z,5.07
2024-02-13T23:11:14.388Z,5.53
2024-02-13T23:13:45.725Z,5.73
2024-02-13T23:16:16.259Z,5.40
2024-02-13T23:18:43.421Z,5.33
2024-02-13T23:21:10.860Z,4.90
2024-02-13T23:23:37.874Z,4.83
2024-02-13T23:26:05.869Z,4.93
2024-02-13T23:28:39.688Z,5.13
2024-02-13T23:31:18.553Z,5.27
2024-02-13T23:33:46.063Z,5.30
2024-02-13T23:36:13.468Z,5.20
2024-02-13T23:38:40.394Z,5.40
2024-02-13T23:41:07.235Z,5.50
2024-02-13T23:43:34.651Z,6.30
2024-02-13T23:46:01.736Z,8.60
2024-02-13T23:48:29.752Z,7.10
2024-02-13T23:50:57.442Z,9.03
2024-02-13T23:53:24.754Z,6.97
2024-02-13T23:55:51.684Z,7.37
2024-02-13T23:58:18.674Z,6.73
